createdAt,value
2018-02-10T00:00:29.434Z,0
2018-02-10T00:01:29.428Z,0
2018-02-10T00:02:29.180Z,0
2018-02-10T00:03:29.240Z,0
2018-02-10T00:04:29.469Z,0
2018-02-10T00:05:28.977Z,0
2018-02-10T00:06:29.506Z,0
2018-02-10T00:07:29.467Z,0
2018-02-10T00:08:29.285Z,0
2018-02-10T00:09:29.558Z,0
2018-02-10T00:10:29.554Z,0
2018-02-10T00:11:29.819Z,0
2018-02-10T00:12:29.585Z,0
2018-02-10T00:13:29.344Z,0
2018-02-10T00:14:29.102Z,0
2018-02-10T00:15:29.636Z,0
2018-02-10T00:16:29.887Z,0
2018-02-10T00:17:29.650Z,0
2018-02-10T00:18:29.177Z,0
2018-02-10T00:19:29.676Z,0
2018-02-10T00:20:29.699Z,0
2018-02-10T00:21:29.711Z,0
2018-02-10T00:22:29.462Z,0
2018-02-10T00:23:29.002Z,0
2018-02-10T00:24:29.745Z,0
2018-02-10T00:25:29.503Z,0
2018-02-10T00:26:29.270Z,0
2018-02-10T00:27:29.790Z,0
2018-02-10T00:28:29.309Z,0
2018-02-10T00:29:29.563Z,0
2018-02-10T00:30:29.326Z,0
2018-02-10T00:31:29.595Z,0
2018-02-10T00:32:29.369Z,0
2018-02-10T00:33:29.869Z,0
2018-02-10T00:34:29.633Z,0
2018-02-10T00:35:29.901Z,0
2018-02-10T00:36:29.923Z,0
2018-02-10T00:37:29.676Z,0
2018-02-10T00:38:29.689Z,0
2018-02-10T00:39:29.949Z,0
2018-02-10T00:40:29.772Z,0
2018-02-10T00:41:29.482Z,0
2018-02-10T00:42:30.000Z,0
2018-02-10T00:43:29.751Z,0
2018-02-10T00:44:29.773Z,0
2018-02-10T00:45:30.045Z,0
2018-02-10T00:46:30.053Z,0
2018-02-10T00:47:29.817Z,0
2018-02-10T00:48:30.102Z,0
2018-02-10T00:49:30.097Z,0
2018-02-10T00:50:30.363Z,0
2018-02-10T00:51:30.121Z,0
2018-02-10T00:52:30.139Z,0
2018-02-10T00:53:29.639Z,0
2018-02-10T00:54:29.908Z,0
2018-02-10T00:55:29.921Z,0
2018-02-10T00:56:29.936Z,0
2018-02-10T00:57:30.218Z,0
2018-02-10T00:58:30.218Z,0
2018-02-10T00:59:29.979Z,0
2018-02-10T01:00:29.752Z,0
2018-02-10T01:01:29.754Z,0
2018-02-10T01:02:30.023Z,0
2018-02-10T01:03:30.042Z,0
2018-02-10T01:04:30.298Z,0
2018-02-10T01:05:30.342Z,0
2018-02-10T01:06:30.574Z,0
2018-02-10T01:07:30.589Z,0
2018-02-10T01:08:30.369Z,0
2018-02-10T01:09:30.113Z,0
2018-02-10T01:10:30.632Z,0
2018-02-10T01:11:30.159Z,0
2018-02-10T01:12:30.439Z,0
2018-02-10T01:13:29.915Z,0
2018-02-10T01:14:30.181Z,0
2018-02-10T01:15:29.959Z,0
2018-02-10T01:16:30.714Z,0
2018-02-10T01:17:30.230Z,0
2018-02-10T01:18:30.244Z,0
2018-02-10T01:19:30.754Z,0
2018-02-10T01:20:30.011Z,0
2018-02-10T01:21:30.579Z,0
2018-02-10T01:22:30.840Z,0
2018-02-10T01:23:30.804Z,0
2018-02-10T01:24:30.556Z,0
2018-02-10T01:25:30.090Z,0
2018-02-10T01:26:30.091Z,0
2018-02-10T01:27:30.360Z,0
2018-02-10T01:28:30.615Z,0
2018-02-10T01:29:30.151Z,0
2018-02-10T01:30:30.396Z,0
2018-02-10T01:31:30.415Z,0
2018-02-10T01:32:30.733Z,0
2018-02-10T01:33:30.433Z,0
2018-02-10T01:34:30.705Z,0
2018-02-10T01:35:30.930Z,0
2018-02-10T01:36:30.868Z,0
2018-02-10T01:37:30.490Z,0
2018-02-10T01:38:30.518Z,0
2018-02-10T01:39:30.517Z,0
2018-02-10T01:40:30.787Z,0
2018-02-10T01:41:30.543Z,0
2018-02-10T01:42:30.839Z,0
2018-02-10T01:43:30.568Z,0
2018-02-10T01:44:30.833Z,0
2018-02-10T01:45:31.096Z,0
2018-02-10T01:46:30.609Z,0
2018-02-10T01:47:30.645Z,0
2018-02-10T01:48:30.388Z,0
2018-02-10T01:49:30.912Z,0
2018-02-10T01:50:30.957Z,0
2018-02-10T01:51:30.445Z,0
2018-02-10T01:52:30.690Z,0
2018-02-10T01:53:31.217Z,0
2018-02-10T01:54:30.459Z,0
2018-02-10T01:55:30.973Z,0
2018-02-10T01:56:30.739Z,0
2018-02-10T01:57:31.021Z,0
2018-02-10T01:58:30.765Z,0
2018-02-10T01:59:31.285Z,0
2018-02-10T02:00:30.538Z,0
2018-02-10T02:01:30.800Z,0
2018-02-10T02:02:30.810Z,0
2018-02-10T02:03:30.830Z,0
2018-02-10T02:04:30.844Z,0
2018-02-10T02:05:30.610Z,0
2018-02-10T02:06:31.120Z,0
2018-02-10T02:07:30.632Z,0
2018-02-10T02:08:31.155Z,0
2018-02-10T02:09:31.158Z,0
2018-02-10T02:10:30.671Z,0
2018-02-10T02:11:30.943Z,0
2018-02-10T02:12:31.209Z,0
2018-02-10T02:13:31.221Z,0
2018-02-10T02:14:30.725Z,0
2018-02-10T02:15:31.007Z,0
2018-02-10T02:16:31.507Z,0
2018-02-10T02:17:31.271Z,0
2018-02-10T02:18:30.771Z,0
2018-02-10T02:19:30.782Z,0
2018-02-10T02:20:31.350Z,0
2018-02-10T02:21:30.559Z,0
2018-02-10T02:22:31.577Z,0
2018-02-10T02:23:31.339Z,0
2018-02-10T02:24:31.096Z,0
2018-02-10T02:25:31.161Z,0
2018-02-10T02:26:31.144Z,0
2018-02-10T02:27:31.139Z,0
2018-02-10T02:28:31.413Z,0
2018-02-10T02:29:30.914Z,0
2018-02-10T02:30:31.455Z,0
2018-02-10T02:31:31.449Z,0
2018-02-10T02:32:31.474Z,0
2018-02-10T02:33:31.469Z,0
2018-02-10T02:34:31.495Z,0
2018-02-10T02:35:31.258Z,0
2018-02-10T02:36:31.265Z,0
2018-02-10T02:37:31.530Z,0
2018-02-10T02:38:31.288Z,0
2018-02-10T02:39:31.557Z,0
2018-02-10T02:40:31.318Z,0
2018-02-10T02:41:31.579Z,0
2018-02-10T02:42:31.597Z,0
2018-02-10T02:43:31.620Z,0
2018-02-10T02:44:31.872Z,0
2018-02-10T02:45:31.381Z,0
2018-02-10T02:46:31.638Z,0
2018-02-10T02:47:31.404Z,0
2018-02-10T02:48:31.416Z,0
2018-02-10T02:49:31.440Z,0
2018-02-10T02:50:31.698Z,0
2018-02-10T02:51:31.211Z,0
2018-02-10T02:52:31.720Z,0
2018-02-10T02:53:31.990Z,0
2018-02-10T02:54:31.502Z,0
2018-02-10T02:55:31.512Z,0
2018-02-10T02:56:31.781Z,0
2018-02-10T02:57:31.029Z,0
2018-02-10T02:58:31.558Z,0
2018-02-10T02:59:32.060Z,0
2018-02-10T03:00:31.328Z,0
2018-02-10T03:01:31.848Z,0
2018-02-10T03:02:31.851Z,0
2018-02-10T03:03:31.862Z,0
2018-02-10T03:04:31.628Z,0
2018-02-10T03:05:31.386Z,0
2018-02-10T03:06:31.393Z,0
2018-02-10T03:07:31.698Z,0
2018-02-10T03:08:32.247Z,0
2018-02-10T03:09:31.438Z,0
2018-02-10T03:10:31.450Z,0
2018-02-10T03:11:32.236Z,0
2018-02-10T03:12:31.748Z,0
2018-02-10T03:13:31.746Z,0
2018-02-10T03:14:31.501Z,0
2018-02-10T03:15:31.774Z,0
2018-02-10T03:16:31.511Z,0
2018-02-10T03:17:32.026Z,0
2018-02-10T03:18:31.784Z,0
2018-02-10T03:19:31.552Z,0
2018-02-10T03:20:31.813Z,0
2018-02-10T03:21:31.862Z,0
2018-02-10T03:22:32.109Z,0
2018-02-10T03:23:32.122Z,0
2018-02-10T03:24:31.879Z,0
2018-02-10T03:25:32.149Z,0
2018-02-10T03:26:31.656Z,0
2018-02-10T03:27:31.688Z,0
2018-02-10T03:28:32.437Z,0
2018-02-10T03:29:32.285Z,0
2018-02-10T03:30:32.243Z,0
2018-02-10T03:31:31.994Z,0
2018-02-10T03:32:32.240Z,0
2018-02-10T03:33:31.737Z,0
2018-02-10T03:34:31.998Z,0
2018-02-10T03:35:32.013Z,0
2018-02-10T03:36:32.042Z,0
2018-02-10T03:37:32.309Z,0
2018-02-10T03:38:32.056Z,0
2018-02-10T03:39:32.323Z,0
2018-02-10T03:40:32.586Z,0
2018-02-10T03:41:31.837Z,0
2018-02-10T03:42:32.360Z,0
2018-02-10T03:43:32.374Z,0
2018-02-10T03:44:32.138Z,0
2018-02-10T03:45:32.416Z,0
2018-02-10T03:46:32.459Z,0
2018-02-10T03:47:32.431Z,0
2018-02-10T03:48:32.438Z,0
2018-02-10T03:49:32.221Z,0
2018-02-10T03:50:32.763Z,0
2018-02-10T03:51:32.245Z,0
2018-02-10T03:52:31.988Z,0
2018-02-10T03:53:31.745Z,0
2018-02-10T03:54:32.265Z,0
2018-02-10T03:55:32.303Z,0
2018-02-10T03:56:32.303Z,0
2018-02-10T03:57:32.310Z,0
2018-02-10T03:58:32.060Z,0
2018-02-10T03:59:32.831Z,0
2018-02-10T04:00:32.845Z,0
2018-02-10T04:01:32.347Z,0
2018-02-10T04:02:32.616Z,0
2018-02-10T04:03:32.378Z,0
2018-02-10T04:04:32.389Z,0
2018-02-10T04:05:32.147Z,0
2018-02-10T04:06:32.413Z,0
2018-02-10T04:07:32.678Z,0
2018-02-10T04:08:33.054Z,0
2018-02-10T04:09:32.524Z,0
2018-02-10T04:10:32.464Z,0
2018-02-10T04:11:32.228Z,0
2018-02-10T04:12:32.496Z,0
2018-02-10T04:13:32.760Z,0
2018-02-10T04:14:32.264Z,0
2018-02-10T04:15:33.047Z,0
2018-02-10T04:16:32.292Z,0
2018-02-10T04:17:33.068Z,0
2018-02-10T04:18:32.312Z,0
2018-02-10T04:19:32.828Z,0
2018-02-10T04:20:33.113Z,0
2018-02-10T04:21:32.860Z,0
2018-02-10T04:22:32.622Z,0
2018-02-10T04:23:32.380Z,0
2018-02-10T04:24:33.149Z,0
2018-02-10T04:25:32.656Z,0
2018-02-10T04:26:32.672Z,0
2018-02-10T04:27:32.687Z,0
2018-02-10T04:28:32.946Z,0
2018-02-10T04:29:32.958Z,0
2018-02-10T04:30:32.471Z,0
2018-02-10T04:31:32.986Z,0
2018-02-10T04:32:33.002Z,0
2018-02-10T04:33:32.503Z,0
2018-02-10T04:34:32.768Z,0
2018-02-10T04:35:32.784Z,0
2018-02-10T04:36:33.292Z,0
2018-02-10T04:37:33.068Z,0
2018-02-10T04:38:32.624Z,0
2018-02-10T04:39:32.854Z,0
2018-02-10T04:40:33.128Z,0
2018-02-10T04:41:33.110Z,0
2018-02-10T04:42:32.870Z,0
2018-02-10T04:43:32.884Z,0
2018-02-10T04:44:32.900Z,0
2018-02-10T04:45:32.657Z,0
2018-02-10T04:46:33.173Z,0
2018-02-10T04:47:32.933Z,0
2018-02-10T04:48:33.450Z,0
2018-02-10T04:49:32.972Z,0
2018-02-10T04:50:32.972Z,0
2018-02-10T04:51:32.981Z,0
2018-02-10T04:52:32.747Z,0
2018-02-10T04:53:33.108Z,0
2018-02-10T04:54:33.021Z,0
2018-02-10T04:55:33.288Z,0
2018-02-10T04:56:32.795Z,0
2018-02-10T04:57:33.402Z,0
2018-02-10T04:58:33.075Z,0
2018-02-10T04:59:32.582Z,0
2018-02-10T05:00:33.372Z,0
2018-02-10T05:01:33.361Z,0
2018-02-10T05:02:32.626Z,0
2018-02-10T05:03:33.153Z,0
2018-02-10T05:04:33.404Z,0
2018-02-10T05:05:33.174Z,0
2018-02-10T05:06:32.920Z,0
2018-02-10T05:07:33.694Z,0
2018-02-10T05:08:32.949Z,0
2018-02-10T05:09:32.959Z,0
2018-02-10T05:10:33.480Z,0
2018-02-10T05:11:33.741Z,0
2018-02-10T05:12:32.996Z,0
2018-02-10T05:13:33.259Z,0
2018-02-10T05:14:33.286Z,0
2018-02-10T05:15:33.046Z,0
2018-02-10T05:16:33.808Z,0
2018-02-10T05:17:33.565Z,0
2018-02-10T05:18:33.585Z,0
2018-02-10T05:19:33.109Z,0
2018-02-10T05:20:33.352Z,0
2018-02-10T05:21:33.107Z,0
2018-02-10T05:22:33.372Z,0
2018-02-10T05:23:33.629Z,0
2018-02-10T05:24:33.398Z,0
2018-02-10T05:25:33.706Z,0
2018-02-10T05:26:33.414Z,0
2018-02-10T05:27:33.483Z,0
2018-02-10T05:28:33.441Z,0
2018-02-10T05:29:33.466Z,0
2018-02-10T05:30:33.720Z,0
2018-02-10T05:31:33.751Z,0
2018-02-10T05:32:33.245Z,0
2018-02-10T05:33:33.512Z,0
2018-02-10T05:34:33.541Z,0
2018-02-10T05:35:33.291Z,0
2018-02-10T05:36:33.803Z,0
2018-02-10T05:37:33.083Z,0
2018-02-10T05:38:33.336Z,0
2018-02-10T05:39:33.089Z,0
2018-02-10T05:40:33.604Z,0
2018-02-10T05:41:33.621Z,0
2018-02-10T05:42:33.904Z,0
2018-02-10T05:43:33.647Z,0
2018-02-10T05:44:33.998Z,0
2018-02-10T05:45:33.666Z,0
2018-02-10T05:46:33.930Z,0
2018-02-10T05:47:33.717Z,0
2018-02-10T05:48:33.201Z,0
2018-02-10T05:49:33.968Z,0
2018-02-10T05:50:33.734Z,0
2018-02-10T05:51:34.234Z,0
2018-02-10T05:52:33.759Z,0
2018-02-10T05:53:34.326Z,0
2018-02-10T05:54:33.533Z,0
2018-02-10T05:55:34.051Z,0
2018-02-10T05:56:34.056Z,0
2018-02-10T05:57:33.834Z,0
2018-02-10T05:58:34.343Z,0
2018-02-10T05:59:33.848Z,0
2018-02-10T06:00:33.856Z,0
2018-02-10T06:01:33.887Z,0
2018-02-10T06:02:33.887Z,0
2018-02-10T06:03:33.649Z,0
2018-02-10T06:04:34.162Z,0
2018-02-10T06:05:33.669Z,0
2018-02-10T06:06:34.206Z,0
2018-02-10T06:07:33.704Z,0
2018-02-10T06:08:34.206Z,0
2018-02-10T06:09:33.973Z,0
2018-02-10T06:10:33.986Z,0
2018-02-10T06:11:34.052Z,0
2018-02-10T06:12:34.547Z,0
2018-02-10T06:13:33.772Z,0
2018-02-10T06:14:34.497Z,0
2018-02-10T06:15:34.306Z,0
2018-02-10T06:16:34.315Z,0
2018-02-10T06:17:34.125Z,0
2018-02-10T06:18:34.094Z,0
2018-02-10T06:19:33.850Z,0
2018-02-10T06:20:34.141Z,0
2018-02-10T06:21:34.385Z,0
2018-02-10T06:22:34.144Z,0
2018-02-10T06:23:33.962Z,0
2018-02-10T06:24:34.420Z,0
2018-02-10T06:25:34.458Z,0
2018-02-10T06:26:34.726Z,0
2018-02-10T06:27:34.212Z,0
2018-02-10T06:28:34.222Z,0
2018-02-10T06:29:33.986Z,0
2018-02-10T06:30:34.760Z,0
2018-02-10T06:31:34.509Z,0
2018-02-10T06:32:34.614Z,0
2018-02-10T06:33:34.038Z,0
2018-02-10T06:34:34.298Z,0
2018-02-10T06:35:34.565Z,0
2018-02-10T06:36:34.839Z,0
2018-02-10T06:37:34.345Z,0
2018-02-10T06:38:34.355Z,0
2018-02-10T06:39:34.406Z,0
2018-02-10T06:40:34.411Z,0
2018-02-10T06:41:34.643Z,0
2018-02-10T06:42:34.410Z,0
2018-02-10T06:43:34.424Z,0
2018-02-10T06:44:34.684Z,5
2018-02-10T06:45:34.706Z,5
2018-02-10T06:46:35.001Z,5
2018-02-10T06:47:34.468Z,5
2018-02-10T06:48:34.480Z,5
2018-02-10T06:49:34.759Z,5
2018-02-10T06:50:34.766Z,5
2018-02-10T06:51:34.817Z,5
2018-02-10T06:52:34.534Z,5
2018-02-10T06:53:34.551Z,5
2018-02-10T06:54:34.578Z,5
2018-02-10T06:55:34.578Z,5
2018-02-10T06:56:34.848Z,5
2018-02-10T06:57:34.847Z,5
2018-02-10T06:58:34.379Z,5
2018-02-10T06:59:34.887Z,5
2018-02-10T07:00:34.397Z,5
2018-02-10T07:01:34.403Z,10
2018-02-10T07:02:34.664Z,10
2018-02-10T07:03:34.187Z,10
2018-02-10T07:04:34.450Z,10
2018-02-10T07:05:34.956Z,10
2018-02-10T07:06:49.894Z,10
2018-02-10T07:07:34.477Z,10
2018-02-10T07:08:34.745Z,10
2018-02-10T07:09:34.518Z,10
2018-02-10T07:10:34.773Z,10
2018-02-10T07:11:34.537Z,10
2018-02-10T07:12:35.056Z,15
2018-02-10T07:13:35.299Z,15
2018-02-10T07:14:34.567Z,15
2018-02-10T07:15:34.827Z,15
2018-02-10T07:16:34.595Z,15
2018-02-10T07:17:35.120Z,15
2018-02-10T07:18:34.869Z,15
2018-02-10T07:19:34.889Z,20
2018-02-10T07:20:34.650Z,20
2018-02-10T07:21:34.410Z,20
2018-02-10T07:22:34.943Z,20
2018-02-10T07:23:35.451Z,20
2018-02-10T07:24:35.207Z,20
2018-02-10T07:25:34.965Z,25
2018-02-10T07:26:34.980Z,25
2018-02-10T07:27:35.249Z,25
2018-02-10T07:28:35.264Z,25
2018-02-10T07:29:35.280Z,25
2018-02-10T07:30:35.041Z,25
2018-02-10T07:31:34.562Z,30
2018-02-10T07:32:35.325Z,30
2018-02-10T07:33:35.328Z,30
2018-02-10T07:34:35.334Z,30
2018-02-10T07:35:35.350Z,30
2018-02-10T07:36:35.118Z,30
2018-02-10T07:37:34.873Z,30
2018-02-10T07:38:35.397Z,35
2018-02-10T07:39:34.900Z,35
2018-02-10T07:40:35.663Z,35
2018-02-10T07:41:34.924Z,40
2018-02-10T07:42:35.183Z,40
2018-02-10T07:43:35.712Z,45
2018-02-10T07:44:35.467Z,45
2018-02-10T07:45:34.724Z,45
2018-02-10T07:46:35.746Z,50
2018-02-10T07:47:35.510Z,50
2018-02-10T07:48:35.782Z,50
2018-02-10T07:49:35.531Z,55
2018-02-10T07:50:35.297Z,55
2018-02-10T07:51:35.307Z,55
2018-02-10T07:52:35.325Z,55
2018-02-10T07:53:35.078Z,60
2018-02-10T07:54:35.354Z,60
2018-02-10T07:55:35.361Z,60
2018-02-10T07:56:35.626Z,60
2018-02-10T07:57:35.139Z,60
2018-02-10T07:58:35.649Z,60
2018-02-10T07:59:35.425Z,60
2018-02-10T08:00:35.185Z,60
2018-02-10T08:01:35.687Z,65
2018-02-10T08:02:35.708Z,65
2018-02-10T08:03:35.478Z,65
2018-02-10T08:04:35.246Z,65
2018-02-10T08:05:35.747Z,65
2018-02-10T08:06:35.506Z,65
2018-02-10T08:07:36.054Z,65
2018-02-10T08:08:35.527Z,65
2018-02-10T08:09:35.541Z,70
2018-02-10T08:10:35.605Z,70
2018-02-10T08:11:35.571Z,70
2018-02-10T08:12:35.851Z,75
2018-02-10T08:13:36.108Z,75
2018-02-10T08:14:36.146Z,75
2018-02-10T08:15:35.620Z,75
2018-02-10T08:16:35.637Z,75
2018-02-10T08:17:36.183Z,75
2018-02-10T08:18:35.912Z,75
2018-02-10T08:19:35.925Z,80
2018-02-10T08:20:35.966Z,80
2018-02-10T08:21:35.701Z,80
2018-02-10T08:22:35.224Z,80
2018-02-10T08:23:35.476Z,80
2018-02-10T08:24:35.741Z,80
2018-02-10T08:25:36.209Z,80
2018-02-10T08:26:35.538Z,75
2018-02-10T08:27:35.531Z,75
2018-02-10T08:28:35.305Z,75
2018-02-10T08:29:35.312Z,75
2018-02-10T08:30:36.075Z,75
2018-02-10T08:31:35.898Z,75
2018-02-10T08:32:36.359Z,75
2018-02-10T08:33:36.116Z,75
2018-02-10T08:34:35.629Z,75
2018-02-10T08:35:35.386Z,75
2018-02-10T08:36:36.355Z,80
2018-02-10T08:37:35.913Z,80
2018-02-10T08:38:35.676Z,80
2018-02-10T08:39:35.691Z,80
2018-02-10T08:40:36.459Z,80
2018-02-10T08:41:35.713Z,85
2018-02-10T08:42:36.229Z,90
2018-02-10T08:43:36.253Z,95
2018-02-10T08:44:35.760Z,100
2018-02-10T08:45:36.044Z,100
2018-02-10T08:46:36.482Z,105
2018-02-10T08:47:35.808Z,110
2018-02-10T08:48:36.564Z,110
2018-02-10T08:49:36.071Z,120
2018-02-10T08:50:36.359Z,115
2018-02-10T08:51:35.600Z,115
2018-02-10T08:52:36.376Z,115
2018-02-10T08:53:36.120Z,110
2018-02-10T08:54:36.383Z,110
2018-02-10T08:55:36.404Z,110
2018-02-10T08:56:36.419Z,110
2018-02-10T08:57:36.177Z,110
2018-02-10T08:58:36.699Z,110
2018-02-10T08:59:36.207Z,110
2018-02-10T09:00:35.968Z,110
2018-02-10T09:01:36.546Z,115
2018-02-10T09:02:36.752Z,115
2018-02-10T09:03:36.006Z,115
2018-02-10T09:04:36.041Z,115
2018-02-10T09:05:36.541Z,120
2018-02-10T09:06:36.056Z,120
2018-02-10T09:07:36.881Z,120
2018-02-10T09:08:35.822Z,120
2018-02-10T09:09:36.343Z,115
2018-02-10T09:10:36.100Z,115
2018-02-10T09:11:36.624Z,120
2018-02-10T09:12:36.636Z,120
2018-02-10T09:13:36.648Z,120
2018-02-10T09:14:36.411Z,115
2018-02-10T09:15:36.425Z,115
2018-02-10T09:16:36.431Z,115
2018-02-10T09:17:36.717Z,115
2018-02-10T09:18:36.462Z,115
2018-02-10T09:19:36.475Z,110
2018-02-10T09:20:36.521Z,110
2018-02-10T09:21:37.006Z,110
2018-02-10T09:22:37.014Z,110
2018-02-10T09:23:36.785Z,110
2018-02-10T09:24:36.546Z,115
2018-02-10T09:25:36.588Z,115
2018-02-10T09:26:36.844Z,115
2018-02-10T09:27:36.587Z,120
2018-02-10T09:28:37.103Z,120
2018-02-10T09:29:36.864Z,125
2018-02-10T09:30:37.122Z,130
2018-02-10T09:31:37.141Z,130
2018-02-10T09:32:36.898Z,130
2018-02-10T09:33:36.669Z,130
2018-02-10T09:34:36.674Z,130
2018-02-10T09:35:36.934Z,130
2018-02-10T09:36:37.206Z,135
2018-02-10T09:37:36.722Z,135
2018-02-10T09:38:36.986Z,130
2018-02-10T09:39:36.494Z,130
2018-02-10T09:40:37.015Z,130
2018-02-10T09:41:36.517Z,125
2018-02-10T09:42:36.279Z,125
2018-02-10T09:43:37.048Z,125
2018-02-10T09:44:37.312Z,125
2018-02-10T09:45:37.331Z,125
2018-02-10T09:46:37.345Z,130
2018-02-10T09:47:37.352Z,130
2018-02-10T09:48:37.112Z,135
2018-02-10T09:49:36.701Z,140
2018-02-10T09:50:36.639Z,140
2018-02-10T09:51:37.160Z,145
2018-02-10T09:52:37.169Z,150
2018-02-10T09:53:36.954Z,150
2018-02-10T09:54:37.194Z,155
2018-02-10T09:55:37.219Z,160
2018-02-10T09:56:36.957Z,165
2018-02-10T09:57:36.982Z,170
2018-02-10T09:58:37.242Z,170
2018-02-10T09:59:37.254Z,160
2018-02-10T10:00:37.267Z,155
2018-02-10T10:01:37.291Z,150
2018-02-10T10:02:37.575Z,155
2018-02-10T10:03:37.065Z,145
2018-02-10T10:04:36.832Z,145
2018-02-10T10:05:37.600Z,145
2018-02-10T10:06:36.873Z,150
2018-02-10T10:07:36.870Z,150
2018-02-10T10:08:37.179Z,155
2018-02-10T10:09:37.159Z,155
2018-02-10T10:10:37.163Z,165
2018-02-10T10:11:37.176Z,175
2018-02-10T10:12:37.458Z,190
2018-02-10T10:13:37.211Z,205
2018-02-10T10:14:37.475Z,210
2018-02-10T10:15:37.238Z,215
2018-02-10T10:16:37.518Z,210
2018-02-10T10:17:37.267Z,210
2018-02-10T10:18:37.524Z,205
2018-02-10T10:19:37.561Z,205
2018-02-10T10:20:37.815Z,205
2018-02-10T10:21:37.322Z,205
2018-02-10T10:22:37.586Z,200
2018-02-10T10:23:37.848Z,200
2018-02-10T10:24:37.368Z,200
2018-02-10T10:25:37.129Z,195
2018-02-10T10:26:37.645Z,195
2018-02-10T10:27:37.165Z,190
2018-02-10T10:28:37.188Z,190
2018-02-10T10:29:37.439Z,190
2018-02-10T10:30:37.696Z,185
2018-02-10T10:31:37.960Z,185
2018-02-10T10:32:37.476Z,180
2018-02-10T10:33:37.752Z,175
2018-02-10T10:34:37.501Z,170
2018-02-10T10:35:37.771Z,165
2018-02-10T10:36:37.528Z,165
2018-02-10T10:37:37.564Z,165
2018-02-10T10:38:37.816Z,165
2018-02-10T10:39:37.329Z,165
2018-02-10T10:40:37.958Z,165
2018-02-10T10:41:37.352Z,165
2018-02-10T10:42:37.369Z,165
2018-02-10T10:43:37.648Z,165
2018-02-10T10:44:37.915Z,165
2018-02-10T10:45:37.263Z,165
2018-02-10T10:46:37.932Z,160
2018-02-10T10:47:37.691Z,155
2018-02-10T10:48:37.975Z,155
2018-02-10T10:49:37.719Z,150
2018-02-10T10:50:37.732Z,145
2018-02-10T10:51:37.744Z,145
2018-02-10T10:52:38.012Z,150
2018-02-10T10:53:38.239Z,150
2018-02-10T10:54:38.049Z,155
2018-02-10T10:55:37.809Z,160
2018-02-10T10:56:38.325Z,165
2018-02-10T10:57:37.832Z,170
2018-02-10T10:58:38.102Z,180
2018-02-10T10:59:37.866Z,190
2018-02-10T11:00:38.005Z,195
2018-02-10T11:01:37.893Z,195
2018-02-10T11:02:38.171Z,155
2018-02-10T11:03:37.927Z,150
2018-02-10T11:04:38.448Z,150
2018-02-10T11:05:37.949Z,150
2018-02-10T11:06:37.714Z,155
2018-02-10T11:07:37.986Z,155
2018-02-10T11:08:37.748Z,165
2018-02-10T11:09:38.265Z,160
2018-02-10T11:10:38.031Z,160
2018-02-10T11:11:37.792Z,170
2018-02-10T11:12:38.303Z,205
2018-02-10T11:13:37.819Z,210
2018-02-10T11:14:38.653Z,215
2018-02-10T11:15:53.276Z,220
2018-02-10T11:16:38.606Z,225
2018-02-10T11:17:38.387Z,235
2018-02-10T11:18:38.149Z,230
2018-02-10T11:19:37.901Z,230
2018-02-10T11:20:37.915Z,230
2018-02-10T11:21:38.175Z,235
2018-02-10T11:22:38.198Z,235
2018-02-10T11:23:38.209Z,240
2018-02-10T11:24:38.475Z,245
2018-02-10T11:25:38.009Z,245
2018-02-10T11:26:38.264Z,250
2018-02-10T11:27:38.278Z,255
2018-02-10T11:28:38.301Z,260
2018-02-10T11:29:38.330Z,265
2018-02-10T11:30:38.331Z,265
2018-02-10T11:31:38.357Z,265
2018-02-10T11:32:38.387Z,265
2018-02-10T11:33:38.711Z,265
2018-02-10T11:34:38.654Z,260
2018-02-10T11:35:37.906Z,250
2018-02-10T11:36:38.683Z,245
2018-02-10T11:37:38.706Z,240
2018-02-10T11:38:38.711Z,235
2018-02-10T11:39:38.726Z,230
2018-02-10T11:40:38.256Z,235
2018-02-10T11:41:39.013Z,225
2018-02-10T11:42:38.520Z,225
2018-02-10T11:43:38.559Z,225
2018-02-10T11:44:38.547Z,225
2018-02-10T11:45:38.567Z,220
2018-02-10T11:46:38.832Z,220
2018-02-10T11:47:38.359Z,215
2018-02-10T11:48:38.618Z,210
2018-02-10T11:49:38.380Z,210
2018-02-10T11:50:38.660Z,205
2018-02-10T11:51:38.168Z,205
2018-02-10T11:52:39.853Z,205
2018-02-10T11:53:38.940Z,200
2018-02-10T11:54:38.716Z,200
2018-02-10T11:55:39.228Z,200
2018-02-10T11:56:39.240Z,200
2018-02-10T11:57:38.498Z,195
2018-02-10T11:58:38.771Z,195
2018-02-10T11:59:39.143Z,190
2018-02-10T12:00:38.796Z,185
2018-02-10T12:01:38.811Z,180
2018-02-10T12:02:39.125Z,175
2018-02-10T12:03:39.094Z,170
2018-02-10T12:04:39.371Z,165
2018-02-10T12:05:38.937Z,165
2018-02-10T12:06:39.129Z,160
2018-02-10T12:07:39.146Z,160
2018-02-10T12:08:38.906Z,160
2018-02-10T12:09:39.432Z,165
2018-02-10T12:10:38.938Z,165
2018-02-10T12:11:39.235Z,165
2018-02-10T12:12:39.233Z,160
2018-02-10T12:13:39.541Z,165
2018-02-10T12:14:38.764Z,165
2018-02-10T12:15:39.018Z,165
2018-02-10T12:16:39.040Z,165
2018-02-10T12:17:39.307Z,165
2018-02-10T12:18:39.065Z,165
2018-02-10T12:19:38.830Z,170
2018-02-10T12:20:39.119Z,175
2018-02-10T12:21:39.382Z,175
2018-02-10T12:22:38.872Z,180
2018-02-10T12:23:39.413Z,185
2018-02-10T12:24:38.902Z,190
2018-02-10T12:25:39.173Z,200
2018-02-10T12:26:39.436Z,210
2018-02-10T12:27:39.206Z,225
2018-02-10T12:28:39.475Z,230
2018-02-10T12:29:39.224Z,240
2018-02-10T12:30:39.545Z,245
2018-02-10T12:31:39.259Z,245
2018-02-10T12:32:39.787Z,255
2018-02-10T12:33:39.799Z,250
2018-02-10T12:34:38.806Z,250
2018-02-10T12:35:39.578Z,255
2018-02-10T12:36:39.085Z,260
2018-02-10T12:37:39.874Z,270
2018-02-10T12:38:39.634Z,280
2018-02-10T12:39:39.382Z,285
2018-02-10T12:40:39.402Z,290
2018-02-10T12:41:39.917Z,300
2018-02-10T12:42:39.687Z,310
2018-02-10T12:43:39.760Z,330
2018-02-10T12:44:40.016Z,355
2018-02-10T12:45:39.472Z,375
2018-02-10T12:46:39.741Z,395
2018-02-10T12:47:39.951Z,410
2018-02-10T12:48:40.010Z,420
2018-02-10T12:49:39.531Z,435
2018-02-10T12:50:39.321Z,450
2018-02-10T12:51:39.314Z,440
2018-02-10T12:52:39.339Z,425
2018-02-10T12:53:40.100Z,410
2018-02-10T12:54:39.377Z,425
2018-02-10T12:55:39.894Z,365
2018-02-10T12:56:39.643Z,340
2018-02-10T12:57:39.413Z,315
2018-02-10T12:58:39.672Z,295
2018-02-10T12:59:39.947Z,285
2018-02-10T13:00:39.957Z,280
2018-02-10T13:01:39.476Z,275
2018-02-10T13:02:39.740Z,270
2018-02-10T13:03:39.766Z,265
2018-02-10T13:04:40.274Z,260
2018-02-10T13:05:39.789Z,255
2018-02-10T13:06:39.555Z,250
2018-02-10T13:07:39.314Z,245
2018-02-10T13:08:39.580Z,240
2018-02-10T13:09:40.118Z,235
2018-02-10T13:10:40.117Z,230
2018-02-10T13:11:40.136Z,225
2018-02-10T13:12:40.190Z,225
2018-02-10T13:13:39.915Z,225
2018-02-10T13:14:40.187Z,225
2018-02-10T13:15:40.250Z,225
2018-02-10T13:16:40.241Z,220
2018-02-10T13:17:40.231Z,220
2018-02-10T13:18:40.502Z,215
2018-02-10T13:19:40.008Z,215
2018-02-10T13:20:40.033Z,215
2018-02-10T13:21:40.044Z,220
2018-02-10T13:22:40.309Z,220
2018-02-10T13:23:40.328Z,225
2018-02-10T13:24:40.357Z,225
2018-02-10T13:25:40.115Z,230
2018-02-10T13:26:40.123Z,230
2018-02-10T13:27:40.633Z,235
2018-02-10T13:28:40.211Z,235
2018-02-10T13:29:40.169Z,230
2018-02-10T13:30:39.936Z,230
2018-02-10T13:31:40.206Z,195
2018-02-10T13:32:40.468Z,195
2018-02-10T13:33:40.241Z,190
2018-02-10T13:34:40.272Z,185
2018-02-10T13:35:40.276Z,175
2018-02-10T13:36:40.793Z,165
2018-02-10T13:37:40.556Z,160
2018-02-10T13:38:40.837Z,155
2018-02-10T13:39:40.331Z,140
2018-02-10T13:40:40.855Z,135
2018-02-10T13:41:40.892Z,130
2018-02-10T13:42:40.646Z,125
2018-02-10T13:43:40.397Z,120
2018-02-10T13:44:40.421Z,160
2018-02-10T13:45:40.174Z,165
2018-02-10T13:46:40.708Z,165
2018-02-10T13:47:40.468Z,165
2018-02-10T13:48:40.744Z,165
2018-02-10T13:49:40.758Z,170
2018-02-10T13:50:40.520Z,165
2018-02-10T13:51:40.782Z,165
2018-02-10T13:52:41.113Z,160
2018-02-10T13:53:40.830Z,155
2018-02-10T13:54:40.824Z,155
2018-02-10T13:55:40.845Z,150
2018-02-10T13:56:41.106Z,150
2018-02-10T13:57:40.880Z,150
2018-02-10T13:58:40.890Z,150
2018-02-10T13:59:40.650Z,150
2018-02-10T14:00:40.937Z,145
2018-02-10T14:01:40.940Z,140
2018-02-10T14:02:40.700Z,140
2018-02-10T14:03:40.470Z,135
2018-02-10T14:04:41.045Z,130
2018-02-10T14:05:41.003Z,130
2018-02-10T14:06:41.023Z,125
2018-02-10T14:07:40.277Z,120
2018-02-10T14:08:41.293Z,115
2018-02-10T14:09:41.306Z,115
2018-02-10T14:10:40.831Z,115
2018-02-10T14:11:40.616Z,115
2018-02-10T14:12:40.618Z,120
2018-02-10T14:13:41.378Z,115
2018-02-10T14:14:41.201Z,115
2018-02-10T14:15:40.893Z,115
2018-02-10T14:16:40.665Z,115
2018-02-10T14:17:41.182Z,110
2018-02-10T14:18:40.942Z,105